sensor_id;sensor_type;location;lat;lon;timestamp;temperature;humidity
35129;DHT22;21301;43.626;10.580;2023-03-24T00:00:14;10.90;99.90
35129;DHT22;21301;43.626;10.580;2023-03-24T00:02:41;10.90;99.90
35129;DHT22;21301;43.626;10.580;2023-03-24T00:05:09;10.60;99.90
35129;DHT22;21301;43.626;10.580;2023-03-24T00:07:36;10.60;99.90
35129;DHT22;21301;43.626;10.580;2023-03-24T00:10:07;10.60;99.90
35129;DHT22;21301;43.626;10.580;2023-03-24T00:12:35;10.80;99.90
35129;DHT22;21301;43.626;10.580;2023-03-24T00:15:09;11.00;99.90
35129;DHT22;21301;43.626;10.580;2023-03-24T00:17:35;11.10;99.90
35129;DHT22;21301;43.626;10.580;2023-03-24T00:20:07;10.90;99.90
35129;DHT22;21301;43.626;10.580;2023-03-24T00:22:38;11.10;99.90
35129;DHT22;21301;43.626;10.580;2023-03-24T00:25:10;11.00;99.90
35129;DHT22;21301;43.626;10.580;2023-03-24T00:27:37;11.10;99.90
35129;DHT22;21301;43.626;10.580;2023-03-24T00:30:05;11.20;99.90
35129;DHT22;21301;43.626;10.580;2023-03-24T00:32:32;11.20;99.90
35129;DHT22;21301;43.626;10.580;2023-03-24T00:34:58;11.30;99.90
35129;DHT22;21301;43.626;10.580;2023-03-24T00:37:25;11.30;99.90
35129;DHT22;21301;43.626;10.580;2023-03-24T00:39:50;11.30;99.90
35129;DHT22;21301;43.626;10.580;2023-03-24T00:42:16;11.40;99.90
35129;DHT22;21301;43.626;10.580;2023-03-24T00:44:42;11.50;99.90
35129;DHT22;21301;43.626;10.580;2023-03-24T00:47:09;11.40;99.90
35129;DHT22;21301;43.626;10.580;2023-03-24T00:49:36;11.30;99.90
35129;DHT22;21301;43.626;10.580;2023-03-24T00:52:15;11.20;99.90
35129;DHT22;21301;43.626;10.580;2023-03-24T00:54:43;11.10;99.90
35129;DHT22;21301;43.626;10.580;2023-03-24T00:57:12;11.00;99.90
35129;DHT22;21301;43.626;10.580;2023-03-24T00:59:39;10.90;99.90
35129;DHT22;21301;43.626;10.580;2023-03-24T01:02:18;10.90;99.90
35129;DHT22;21301;43.626;10.580;2023-03-24T01:04:51;10.90;99.90
35129;DHT22;21301;43.626;10.580;2023-03-24T01:07:20;11.00;99.90
35129;DHT22;21301;43.626;10.580;2023-03-24T01:09:47;11.10;99.90
35129;DHT22;21301;43.626;10.580;2023-03-24T01:12:18;11.00;99.90
35129;DHT22;21301;43.626;10.580;2023-03-24T01:14:44;11.10;99.90
35129;DHT22;21301;43.626;10.580;2023-03-24T01:17:11;11.10;99.90
35129;DHT22;21301;43.626;10.580;2023-03-24T01:19:37;11.10;99.90
35129;DHT22;21301;43.626;10.580;2023-03-24T01:22:05;11.10;99.90
35129;DHT22;21301;43.626;10.580;2023-03-24T01:24:31;11.20;99.90
35129;DHT22;21301;43.626;10.580;2023-03-24T01:26:58;11.00;99.90
35129;DHT22;21301;43.626;10.580;2023-03-24T01:29:24;11.00;99.90
35129;DHT22;21301;43.626;10.580;2023-03-24T01:31:50;10.80;99.90
35129;DHT22;21301;43.626;10.580;2023-03-24T01:34:16;10.60;99.90
35129;DHT22;21301;43.626;10.580;2023-03-24T01:36:41;10.60;99.90
35129;DHT22;21301;43.626;10.580;2023-03-24T01:39:07;10.60;99.90
35129;DHT22;21301;43.626;10.580;2023-03-24T01:41:37;10.50;99.90
35129;DHT22;21301;43.626;10.580;2023-03-24T01:44:31;10.50;99.90
35129;DHT22;21301;43.626;10.580;2023-03-24T01:46:58;10.50;99.90
35129;DHT22;21301;43.626;10.580;2023-03-24T01:49:41;10.40;99.90
35129;DHT22;21301;43.626;10.580;2023-03-24T01:52:14;10.50;99.90
35129;DHT22;21301;43.626;10.580;2023-03-24T01:54:46;10.60;99.90
35129;DHT22;21301;43.626;10.580;2023-03-24T01:57:22;10.50;99.90
35129;DHT22;21301;43.626;10.580;2023-03-24T01:59:51;10.50;99.90
35129;DHT22;21301;43.626;10.580;2023-03-24T02:02:41;10.50;99.90
35129;DHT22;21301;43.626;10.580;2023-03-24T02:05:16;10.60;99.90
35129;DHT22;21301;43.626;10.580;2023-03-24T02:10:30;10.70;99.90
35129;DHT22;21301;43.626;10.580;2023-03-24T02:12:58;10.60;99.90
35129;DHT22;21301;43.626;10.580;2023-03-24T02:15:27;10.60;99.90
35129;DHT22;21301;43.626;10.580;2023-03-24T02:18:24;10.60;99.90
35129;DHT22;21301;43.626;10.580;2023-03-24T02:29:47;11.00;99.90
35129;DHT22;21301;43.626;10.580;2023-03-24T02:43:51;10.90;99.90
35129;DHT22;21301;43.626;10.580;2023-03-24T02:46:26;11.00;99.90
35129;DHT22;21301;43.626;10.580;2023-03-24T02:54:11;10.70;99.90
35129;DHT22;21301;43.626;10.580;2023-03-24T02:57:10;10.80;99.90
35129;DHT22;21301;43.626;10.580;2023-03-24T03:03:25;10.70;99.90
35129;DHT22;21301;43.626;10.580;2023-03-24T03:05:58;10.80;99.90
35129;DHT22;21301;43.626;10.580;2023-03-24T03:08:28;10.70;99.90
35129;DHT22;21301;43.626;10.580;2023-03-24T03:10:58;10.70;99.90
35129;DHT22;21301;43.626;10.580;2023-03-24T03:13:30;10.90;99.90
35129;DHT22;21301;43.626;10.580;2023-03-24T03:16:03;10.90;99.90
35129;DHT22;21301;43.626;10.580;2023-03-24T03:18:39;10.80;99.90
35129;DHT22;21301;43.626;10.580;2023-03-24T03:21:13;10.70;99.90
35129;DHT22;21301;43.626;10.580;2023-03-24T03:24:11;10.70;99.90
35129;DHT22;21301;43.626;10.580;2023-03-24T03:26:41;10.80;99.90
35129;DHT22;21301;43.626;10.580;2023-03-24T03:29:12;10.70;99.90
35129;DHT22;21301;43.626;10.580;2023-03-24T03:31:52;10.70;99.90
35129;DHT22;21301;43.626;10.580;2023-03-24T03:34:40;10.60;99.90
35129;DHT22;21301;43.626;10.580;2023-03-24T03:37:22;10.40;99.90
35129;DHT22;21301;43.626;10.580;2023-03-24T03:40:08;10.30;99.90
35129;DHT22;21301;43.626;10.580;2023-03-24T03:42:39;10.20;99.90
35129;DHT22;21301;43.626;10.580;2023-03-24T03:45:07;10.20;99.90
35129;DHT22;21301;43.626;10.580;2023-03-24T03:47:35;10.20;99.90
35129;DHT22;21301;43.626;10.580;2023-03-24T03:50:02;10.10;99.90
35129;DHT22;21301;43.626;10.580;2023-03-24T03:52:28;10.10;99.90
35129;DHT22;21301;43.626;10.580;2023-03-24T03:54:55;10.10;99.90
35129;DHT22;21301;43.626;10.580;2023-03-24T03:57:23;10.10;99.90
35129;DHT22;21301;43.626;10.580;2023-03-24T04:00:15;10.10;99.90
35129;DHT22;21301;43.626;10.580;2023-03-24T04:09:07;9.90;99.90
35129;DHT22;21301;43.626;10.580;2023-03-24T04:14:58;9.80;99.90
35129;DHT22;21301;43.626;10.580;2023-03-24T04:23:54;10.00;99.90
35129;DHT22;21301;43.626;10.580;2023-03-24T04:26:36;9.80;99.90
35129;DHT22;21301;43.626;10.580;2023-03-24T04:29:17;9.70;99.90
35129;DHT22;21301;43.626;10.580;2023-03-24T04:34:47;9.60;99.90
35129;DHT22;21301;43.626;10.580;2023-03-24T04:37:35;9.60;99.90
35129;DHT22;21301;43.626;10.580;2023-03-24T04:40:10;9.50;99.90
35129;DHT22;21301;43.626;10.580;2023-03-24T04:42:50;9.50;99.90
35129;DHT22;21301;43.626;10.580;2023-03-24T04:45:20;9.50;99.90
35129;DHT22;21301;43.626;10.580;2023-03-24T04:47:58;9.40;99.90
35129;DHT22;21301;43.626;10.580;2023-03-24T04:50:39;9.40;99.90
35129;DHT22;21301;43.626;10.580;2023-03-24T04:53:11;9.30;99.90
35129;DHT22;21301;43.626;10.580;2023-03-24T04:55:57;9.30;99.90
35129;DHT22;21301;43.626;10.580;2023-03-24T04:58:50;9.30;99.90
35129;DHT22;21301;43.626;10.580;2023-03-24T05:01:16;9.50;99.90
35129;DHT22;21301;43.626;10.580;2023-03-24T05:03:58;9.50;99.90
35129;DHT22;21301;43.626;10.580;2023-03-24T05:06:24;9.60;99.90
35129;DHT22;21301;43.626;10.580;2023-03-24T05:08:51;9.60;99.90
35129;DHT22;21301;43.626;10.580;2023-03-24T05:11:18;9.50;99.90
35129;DHT22;21301;43.626;10.580;2023-03-24T05:13:53;9.50;99.90
35129;DHT22;21301;43.626;10.580;2023-03-24T05:16:20;9.50;99.90
35129;DHT22;21301;43.626;10.580;2023-03-24T05:18:54;9.40;99.90
35129;DHT22;21301;43.626;10.580;2023-03-24T05:21:20;9.40;99.90
35129;DHT22;21301;43.626;10.580;2023-03-24T05:23:46;9.50;99.90
35129;DHT22;21301;43.626;10.580;2023-03-24T05:26:12;9.60;99.90
35129;DHT22;21301;43.626;10.580;2023-03-24T05:28:56;9.70;99.90
35129;DHT22;21301;43.626;10.580;2023-03-24T05:31:22;9.60;99.90
35129;DHT22;21301;43.626;10.580;2023-03-24T05:33:55;9.50;99.90
35129;DHT22;21301;43.626;10.580;2023-03-24T05:36:22;9.70;99.90
35129;DHT22;21301;43.626;10.580;2023-03-24T05:38:55;10.00;99.90
35129;DHT22;21301;43.626;10.580;2023-03-24T05:41:25;9.90;99.90
35129;DHT22;21301;43.626;10.580;2023-03-24T05:43:51;9.90;99.90
35129;DHT22;21301;43.626;10.580;2023-03-24T05:46:17;9.90;99.90
35129;DHT22;21301;43.626;10.580;2023-03-24T05:48:44;10.00;99.90
35129;DHT22;21301;43.626;10.580;2023-03-24T05:51:14;9.90;99.90
35129;DHT22;21301;43.626;10.580;2023-03-24T05:53:40;9.80;99.90
35129;DHT22;21301;43.626;10.580;2023-03-24T05:56:12;9.80;99.90
35129;DHT22;21301;43.626;10.580;2023-03-24T05:58:58;9.70;99.90
35129;DHT22;21301;43.626;10.580;2023-03-24T06:01:39;9.60;99.90
35129;DHT22;21301;43.626;10.580;2023-03-24T06:04:17;9.60;99.90
35129;DHT22;21301;43.626;10.580;2023-03-24T06:06:43;9.60;99.90
35129;DHT22;21301;43.626;10.580;2023-03-24T06:09:10;9.70;99.90
35129;DHT22;21301;43.626;10.580;2023-03-24T06:11:37;9.70;99.90
35129;DHT22;21301;43.626;10.580;2023-03-24T06:14:07;9.70;99.90
35129;DHT22;21301;43.626;10.580;2023-03-24T06:16:45;9.70;99.90
35129;DHT22;21301;43.626;10.580;2023-03-24T06:19:15;9.70;99.90
35129;DHT22;21301;43.626;10.580;2023-03-24T06:22:04;9.70;99.90
35129;DHT22;21301;43.626;10.580;2023-03-24T06:24:38;9.80;99.90
35129;DHT22;21301;43.626;10.580;2023-03-24T06:27:08;9.90;99.90
35129;DHT22;21301;43.626;10.580;2023-03-24T06:29:35;10.10;99.90
35129;DHT22;21301;43.626;10.580;2023-03-24T06:32:02;10.10;99.90
35129;DHT22;21301;43.626;10.580;2023-03-24T06:34:34;10.40;99.90
35129;DHT22;21301;43.626;10.580;2023-03-24T06:37:12;10.40;99.90
35129;DHT22;21301;43.626;10.580;2023-03-24T06:39:39;10.60;99.90
35129;DHT22;21301;43.626;10.580;2023-03-24T06:42:06;10.60;99.90
35129;DHT22;21301;43.626;10.580;2023-03-24T06:44:32;10.60;99.90
35129;DHT22;21301;43.626;10.580;2023-03-24T06:46:58;10.90;99.90
35129;DHT22;21301;43.626;10.580;2023-03-24T06:49:25;11.30;99.90
35129;DHT22;21301;43.626;10.580;2023-03-24T06:51:51;11.80;99.90
35129;DHT22;21301;43.626;10.580;2023-03-24T06:54:18;12.10;99.90
35129;DHT22;21301;43.626;10.580;2023-03-24T06:56:44;12.40;99.90
35129;DHT22;21301;43.626;10.580;2023-03-24T06:59:10;12.40;99.90
35129;DHT22;21301;43.626;10.580;2023-03-24T07:01:37;12.80;99.90
35129;DHT22;21301;43.626;10.580;2023-03-24T07:04:21;13.00;99.90
35129;DHT22;21301;43.626;10.580;2023-03-24T07:07:06;13.20;99.90
35129;DHT22;21301;43.626;10.580;2023-03-24T07:09:32;13.70;99.90
35129;DHT22;21301;43.626;10.580;2023-03-24T07:11:58;13.80;99.90
35129;DHT22;21301;43.626;10.580;2023-03-24T07:14:24;13.80;99.90
35129;DHT22;21301;43.626;10.580;2023-03-24T07:16:54;14.00;99.90
35129;DHT22;21301;43.626;10.580;2023-03-24T07:19:34;13.90;99.90
35129;DHT22;21301;43.626;10.580;2023-03-24T07:22:18;14.10;99.90
35129;DHT22;21301;43.626;10.580;2023-03-24T07:25:05;14.40;99.90
35129;DHT22;21301;43.626;10.580;2023-03-24T07:27:45;14.80;99.90
35129;DHT22;21301;43.626;10.580;2023-03-24T07:30:14;15.60;99.90
35129;DHT22;21301;43.626;10.580;2023-03-24T07:32:42;16.10;99.90
35129;DHT22;21301;43.626;10.580;2023-03-24T07:35:10;16.00;99.90
35129;DHT22;21301;43.626;10.580;2023-03-24T07:37:37;16.10;99.90
35129;DHT22;21301;43.626;10.580;2023-03-24T07:40:04;16.40;99.90
35129;DHT22;21301;43.626;10.580;2023-03-24T07:42:31;16.40;99.90
35129;DHT22;21301;43.626;10.580;2023-03-24T07:45:36;16.70;99.90
35129;DHT22;21301;43.626;10.580;2023-03-24T07:48:02;16.60;99.90
35129;DHT22;21301;43.626;10.580;2023-03-24T07:50:32;16.50;99.90
35129;DHT22;21301;43.626;10.580;2023-03-24T07:53:00;16.30;99.90
35129;DHT22;21301;43.626;10.580;2023-03-24T07:55:26;16.20;99.90
35129;DHT22;21301;43.626;10.580;2023-03-24T07:57:56;16.10;99.90
35129;DHT22;21301;43.626;10.580;2023-03-24T08:00:25;16.30;99.90
35129;DHT22;21301;43.626;10.580;2023-03-24T08:03:11;16.30;99.90
35129;DHT22;21301;43.626;10.580;2023-03-24T08:05:44;16.20;99.90
35129;DHT22;21301;43.626;10.580;2023-03-24T08:08:18;16.40;99.90
35129;DHT22;21301;43.626;10.580;2023-03-24T08:10:44;17.00;99.90
35129;DHT22;21301;43.626;10.580;2023-03-24T08:13:14;17.80;99.90
35129;DHT22;21301;43.626;10.580;2023-03-24T08:15:40;18.90;99.90
35129;DHT22;21301;43.626;10.580;2023-03-24T08:18:06;19.00;99.90
35129;DHT22;21301;43.626;10.580;2023-03-24T08:20:32;18.90;99.90
35129;DHT22;21301;43.626;10.580;2023-03-24T08:22:58;19.20;99.90
35129;DHT22;21301;43.626;10.580;2023-03-24T08:25:26;19.30;99.90
35129;DHT22;21301;43.626;10.580;2023-03-24T08:27:52;19.40;99.90
35129;DHT22;21301;43.626;10.580;2023-03-24T08:30:20;19.90;99.90
35129;DHT22;21301;43.626;10.580;2023-03-24T08:32:49;20.20;99.90
35129;DHT22;21301;43.626;10.580;2023-03-24T08:35:17;20.20;99.90
35129;DHT22;21301;43.626;10.580;2023-03-24T08:37:44;19.70;99.90
35129;DHT22;21301;43.626;10.580;2023-03-24T08:40:15;19.00;99.90
35129;DHT22;21301;43.626;10.580;2023-03-24T08:42:48;18.70;99.90
35129;DHT22;21301;43.626;10.580;2023-03-24T08:45:14;18.90;99.90
35129;DHT22;21301;43.626;10.580;2023-03-24T08:47:40;18.80;99.90
35129;DHT22;21301;43.626;10.580;2023-03-24T08:50:07;18.70;99.90
35129;DHT22;21301;43.626;10.580;2023-03-24T08:52:33;18.90;99.90
35129;DHT22;21301;43.626;10.580;2023-03-24T08:55:00;18.80;99.90
35129;DHT22;21301;43.626;10.580;2023-03-24T08:57:26;18.90;99.90
35129;DHT22;21301;43.626;10.580;2023-03-24T08:59:52;19.00;99.90
35129;DHT22;21301;43.626;10.580;2023-03-24T09:02:18;19.00;99.90
35129;DHT22;21301;43.626;10.580;2023-03-24T09:04:43;18.80;99.90
35129;DHT22;21301;43.626;10.580;2023-03-24T09:07:10;18.70;99.90
35129;DHT22;21301;43.626;10.580;2023-03-24T09:09:36;18.70;99.90
35129;DHT22;21301;43.626;10.580;2023-03-24T09:12:03;18.30;99.90
35129;DHT22;21301;43.626;10.580;2023-03-24T09:14:30;18.50;99.90
35129;DHT22;21301;43.626;10.580;2023-03-24T09:16:55;18.60;99.90
35129;DHT22;21301;43.626;10.580;2023-03-24T09:19:21;18.20;99.90
35129;DHT22;21301;43.626;10.580;2023-03-24T09:21:47;18.50;99.90
35129;DHT22;21301;43.626;10.580;2023-03-24T09:24:13;18.30;99.90
35129;DHT22;21301;43.626;10.580;2023-03-24T09:26:39;18.40;99.90
35129;DHT22;21301;43.626;10.580;2023-03-24T09:29:06;18.40;99.90
35129;DHT22;21301;43.626;10.580;2023-03-24T09:31:32;18.30;99.90
35129;DHT22;21301;43.626;10.580;2023-03-24T09:33:58;18.00;99.90
35129;DHT22;21301;43.626;10.580;2023-03-24T09:36:24;17.90;99.90
35129;DHT22;21301;43.626;10.580;2023-03-24T09:38:50;17.70;99.90
35129;DHT22;21301;43.626;10.580;2023-03-24T09:41:25;17.70;99.90
35129;DHT22;21301;43.626;10.580;2023-03-24T09:44:05;18.00;99.90
35129;DHT22;21301;43.626;10.580;2023-03-24T09:46:42;18.10;99.90
35129;DHT22;21301;43.626;10.580;2023-03-24T09:49:14;18.30;99.90
35129;DHT22;21301;43.626;10.580;2023-03-24T09:51:44;18.60;99.90
35129;DHT22;21301;43.626;10.580;2023-03-24T09:57:17;19.30;99.90
35129;DHT22;21301;43.626;10.580;2023-03-24T09:59:45;19.80;99.90
35129;DHT22;21301;43.626;10.580;2023-03-24T10:02:16;19.70;99.90
35129;DHT22;21301;43.626;10.580;2023-03-24T10:04:42;19.10;99.90
35129;DHT22;21301;43.626;10.580;2023-03-24T10:09:59;19.20;99.90
35129;DHT22;21301;43.626;10.580;2023-03-24T10:12:35;20.10;99.90
35129;DHT22;21301;43.626;10.580;2023-03-24T10:18:00;18.80;99.90
35129;DHT22;21301;43.626;10.580;2023-03-24T10:20:42;19.00;99.90
35129;DHT22;21301;43.626;10.580;2023-03-24T10:28:59;20.00;99.90
35129;DHT22;21301;43.626;10.580;2023-03-24T10:31:31;20.80;99.90
35129;DHT22;21301;43.626;10.580;2023-03-24T10:33:58;21.10;99.90
35129;DHT22;21301;43.626;10.580;2023-03-24T10:36:25;20.90;99.90
35129;DHT22;21301;43.626;10.580;2023-03-24T10:38:52;21.30;99.90
35129;DHT22;21301;43.626;10.580;2023-03-24T10:41:23;21.20;99.90
35129;DHT22;21301;43.626;10.580;2023-03-24T10:43:51;21.10;99.90
35129;DHT22;21301;43.626;10.580;2023-03-24T10:46:20;21.20;99.90
35129;DHT22;21301;43.626;10.580;2023-03-24T10:48:50;21.70;99.90
35129;DHT22;21301;43.626;10.580;2023-03-24T10:51:29;21.70;99.90
35129;DHT22;21301;43.626;10.580;2023-03-24T10:54:18;21.50;99.90
35129;DHT22;21301;43.626;10.580;2023-03-24T10:56:46;20.70;99.90
35129;DHT22;21301;43.626;10.580;2023-03-24T11:04:40;21.20;99.90
35129;DHT22;21301;43.626;10.580;2023-03-24T11:07:19;21.60;99.90
35129;DHT22;21301;43.626;10.580;2023-03-24T11:09:56;22.00;99.90
35129;DHT22;21301;43.626;10.580;2023-03-24T11:12:31;21.90;99.90
35129;DHT22;21301;43.626;10.580;2023-03-24T11:15:18;22.20;99.90
35129;DHT22;21301;43.626;10.580;2023-03-24T11:17:46;22.50;99.90
35129;DHT22;21301;43.626;10.580;2023-03-24T11:23:08;22.10;99.90
35129;DHT22;21301;43.626;10.580;2023-03-24T11:25:39;21.20;99.90
35129;DHT22;21301;43.626;10.580;2023-03-24T11:28:11;20.90;99.90
35129;DHT22;21301;43.626;10.580;2023-03-24T11:30:49;21.20;99.90
35129;DHT22;21301;43.626;10.580;2023-03-24T11:33:27;21.10;99.90
35129;DHT22;21301;43.626;10.580;2023-03-24T11:35:58;20.80;99.90
35129;DHT22;21301;43.626;10.580;2023-03-24T11:38:30;20.40;99.90
35129;DHT22;21301;43.626;10.580;2023-03-24T11:41:01;20.30;99.90
35129;DHT22;21301;43.626;10.580;2023-03-24T11:43:30;20.10;99.90
35129;DHT22;21301;43.626;10.580;2023-03-24T11:46:15;19.80;99.90
35129;DHT22;21301;43.626;10.580;2023-03-24T11:48:56;20.30;99.90
35129;DHT22;21301;43.626;10.580;2023-03-24T11:51:31;20.20;99.90
35129;DHT22;21301;43.626;10.580;2023-03-24T11:53:58;20.10;99.90
35129;DHT22;21301;43.626;10.580;2023-03-24T11:56:33;20.10;99.90
35129;DHT22;21301;43.626;10.580;2023-03-24T11:59:10;20.60;99.90
35129;DHT22;21301;43.626;10.580;2023-03-24T12:01:47;20.70;99.90
35129;DHT22;21301;43.626;10.580;2023-03-24T12:17:53;19.80;99.90
35129;DHT22;21301;43.626;10.580;2023-03-24T12:20:37;19.90;99.90
35129;DHT22;21301;43.626;10.580;2023-03-24T12:42:22;20.80;99.90
35129;DHT22;21301;43.626;10.580;2023-03-24T12:48:10;20.10;99.90
35129;DHT22;21301;43.626;10.580;2023-03-24T12:55:44;20.00;99.90
35129;DHT22;21301;43.626;10.580;2023-03-24T12:58:28;19.80;99.90
35129;DHT22;21301;43.626;10.580;2023-03-24T13:01:04;19.90;99.90
35129;DHT22;21301;43.626;10.580;2023-03-24T13:03:54;19.90;99.90
35129;DHT22;21301;43.626;10.580;2023-03-24T13:06:29;19.70;99.90
35129;DHT22;21301;43.626;10.580;2023-03-24T13:12:05;19.70;99.90
35129;DHT22;21301;43.626;10.580;2023-03-24T13:17:32;19.90;99.90
35129;DHT22;21301;43.626;10.580;2023-03-24T13:20:01;19.60;99.90
35129;DHT22;21301;43.626;10.580;2023-03-24T13:22:33;19.40;99.90
35129;DHT22;21301;43.626;10.580;2023-03-24T13:25:02;19.40;99.90
35129;DHT22;21301;43.626;10.580;2023-03-24T13:27:35;19.00;99.90
35129;DHT22;21301;43.626;10.580;2023-03-24T13:30:44;19.00;99.90
35129;DHT22;21301;43.626;10.580;2023-03-24T13:33:24;18.70;99.90
35129;DHT22;21301;43.626;10.580;2023-03-24T13:38:53;18.70;99.90
35129;DHT22;21301;43.626;10.580;2023-03-24T13:41:22;18.60;99.90
35129;DHT22;21301;43.626;10.580;2023-03-24T13:44:01;18.20;99.90
35129;DHT22;21301;43.626;10.580;2023-03-24T13:46:28;18.10;99.90
35129;DHT22;21301;43.626;10.580;2023-03-24T13:48:56;18.20;99.90
35129;DHT22;21301;43.626;10.580;2023-03-24T13:53:52;18.10;99.90
35129;DHT22;21301;43.626;10.580;2023-03-24T13:56:26;18.10;99.90
35129;DHT22;21301;43.626;10.580;2023-03-24T14:02:21;17.90;99.90
35129;DHT22;21301;43.626;10.580;2023-03-24T14:12:53;17.80;99.90
35129;DHT22;21301;43.626;10.580;2023-03-24T14:15:21;17.90;99.90
35129;DHT22;21301;43.626;10.580;2023-03-24T14:17:53;17.80;99.90
35129;DHT22;21301;43.626;10.580;2023-03-24T14:20:34;17.80;99.90
35129;DHT22;21301;43.626;10.580;2023-03-24T14:23:02;17.80;99.90
35129;DHT22;21301;43.626;10.580;2023-03-24T14:25:30;17.80;99.90
35129;DHT22;21301;43.626;10.580;2023-03-24T14:28:27;17.80;99.90
35129;DHT22;21301;43.626;10.580;2023-03-24T14:31:00;18.00;99.90
35129;DHT22;21301;43.626;10.580;2023-03-24T14:33:27;17.80;99.90
35129;DHT22;21301;43.626;10.580;2023-03-24T14:36:00;17.70;99.90
35129;DHT22;21301;43.626;10.580;2023-03-24T14:38:34;17.90;99.90
35129;DHT22;21301;43.626;10.580;2023-03-24T14:41:07;18.00;99.90
35129;DHT22;21301;43.626;10.580;2023-03-24T14:46:32;17.90;99.90
35129;DHT22;21301;43.626;10.580;2023-03-24T14:56:50;17.90;99.90
35129;DHT22;21301;43.626;10.580;2023-03-24T15:02:44;17.70;99.90
35129;DHT22;21301;43.626;10.580;2023-03-24T15:05:16;17.70;99.90
35129;DHT22;21301;43.626;10.580;2023-03-24T15:07:45;17.90;99.90
35129;DHT22;21301;43.626;10.580;2023-03-24T15:10:22;17.90;99.90
35129;DHT22;21301;43.626;10.580;2023-03-24T15:12:49;17.80;99.90
35129;DHT22;21301;43.626;10.580;2023-03-24T15:15:22;17.60;99.90
35129;DHT22;21301;43.626;10.580;2023-03-24T15:17:48;17.50;99.90
35129;DHT22;21301;43.626;10.580;2023-03-24T15:20:30;17.40;99.90
35129;DHT22;21301;43.626;10.580;2023-03-24T15:23:04;17.70;99.90
35129;DHT22;21301;43.626;10.580;2023-03-24T15:25:30;17.70;99.90
35129;DHT22;21301;43.626;10.580;2023-03-24T15:27:56;17.60;99.90
35129;DHT22;21301;43.626;10.580;2023-03-24T15:30:22;17.50;99.90
35129;DHT22;21301;43.626;10.580;2023-03-24T15:32:49;17.50;99.90
35129;DHT22;21301;43.626;10.580;2023-03-24T15:35:18;17.60;99.90
35129;DHT22;21301;43.626;10.580;2023-03-24T15:37:53;17.50;99.90
35129;DHT22;21301;43.626;10.580;2023-03-24T15:42:53;17.50;99.90
35129;DHT22;21301;43.626;10.580;2023-03-24T15:47:56;17.40;99.90
35129;DHT22;21301;43.626;10.580;2023-03-24T15:50:33;17.40;99.90
35129;DHT22;21301;43.626;10.580;2023-03-24T15:53:03;17.30;99.90
35129;DHT22;21301;43.626;10.580;2023-03-24T15:55:35;17.20;99.90
35129;DHT22;21301;43.626;10.580;2023-03-24T16:00:43;17.10;99.90
35129;DHT22;21301;43.626;10.580;2023-03-24T16:03:18;17.00;99.90
35129;DHT22;21301;43.626;10.580;2023-03-24T16:05:52;16.90;99.90
35129;DHT22;21301;43.626;10.580;2023-03-24T16:11:03;16.70;99.90
35129;DHT22;21301;43.626;10.580;2023-03-24T16:13:36;16.60;99.90
35129;DHT22;21301;43.626;10.580;2023-03-24T16:18:45;16.50;99.90
35129;DHT22;21301;43.626;10.580;2023-03-24T16:21:28;16.50;99.90
35129;DHT22;21301;43.626;10.580;2023-03-24T16:23:56;16.50;99.90
35129;DHT22;21301;43.626;10.580;2023-03-24T16:28:51;16.50;99.90
35129;DHT22;21301;43.626;10.580;2023-03-24T16:31:25;16.40;99.90
35129;DHT22;21301;43.626;10.580;2023-03-24T16:33:52;16.60;99.90
35129;DHT22;21301;43.626;10.580;2023-03-24T16:36:19;16.60;99.90
35129;DHT22;21301;43.626;10.580;2023-03-24T16:38:47;16.50;99.90
35129;DHT22;21301;43.626;10.580;2023-03-24T16:41:14;16.40;99.90
35129;DHT22;21301;43.626;10.580;2023-03-24T16:43:40;16.50;99.90
35129;DHT22;21301;43.626;10.580;2023-03-24T16:46:19;16.40;99.90
35129;DHT22;21301;43.626;10.580;2023-03-24T16:48:46;16.40;99.90
35129;DHT22;21301;43.626;10.580;2023-03-24T16:51:14;16.20;99.90
35129;DHT22;21301;43.626;10.580;2023-03-24T16:53:41;16.20;99.90
35129;DHT22;21301;43.626;10.580;2023-03-24T16:56:08;16.20;99.90
35129;DHT22;21301;43.626;10.580;2023-03-24T16:58:34;16.00;99.90
35129;DHT22;21301;43.626;10.580;2023-03-24T17:01:01;16.00;99.90
35129;DHT22;21301;43.626;10.580;2023-03-24T17:03:27;15.90;99.90
35129;DHT22;21301;43.626;10.580;2023-03-24T17:05:55;15.90;99.90
35129;DHT22;21301;43.626;10.580;2023-03-24T17:08:21;15.80;99.90
35129;DHT22;21301;43.626;10.580;2023-03-24T17:10:48;15.80;99.90
35129;DHT22;21301;43.626;10.580;2023-03-24T17:13:23;15.80;99.90
35129;DHT22;21301;43.626;10.580;2023-03-24T17:15:50;15.70;99.90
35129;DHT22;21301;43.626;10.580;2023-03-24T17:18:18;15.60;99.90
35129;DHT22;21301;43.626;10.580;2023-03-24T17:20:44;15.50;99.90
35129;DHT22;21301;43.626;10.580;2023-03-24T17:23:12;15.40;99.90
35129;DHT22;21301;43.626;10.580;2023-03-24T17:25:38;15.50;99.90
35129;DHT22;21301;43.626;10.580;2023-03-24T17:28:15;15.40;99.90
35129;DHT22;21301;43.626;10.580;2023-03-24T17:30:41;15.40;99.90
35129;DHT22;21301;43.626;10.580;2023-03-24T17:33:11;15.40;99.90
35129;DHT22;21301;43.626;10.580;2023-03-24T17:35:38;15.30;99.90
35129;DHT22;21301;43.626;10.580;2023-03-24T17:38:03;15.20;99.90
35129;DHT22;21301;43.626;10.580;2023-03-24T17:40:29;15.20;99.90
35129;DHT22;21301;43.626;10.580;2023-03-24T17:42:55;15.10;99.90
35129;DHT22;21301;43.626;10.580;2023-03-24T17:45:21;15.00;99.90
35129;DHT22;21301;43.626;10.580;2023-03-24T17:47:47;14.90;99.90
35129;DHT22;21301;43.626;10.580;2023-03-24T17:50:12;14.80;99.90
35129;DHT22;21301;43.626;10.580;2023-03-24T17:52:49;14.80;99.90
35129;DHT22;21301;43.626;10.580;2023-03-24T17:55:16;14.80;99.90
35129;DHT22;21301;43.626;10.580;2023-03-24T17:57:42;14.70;99.90
35129;DHT22;21301;43.626;10.580;2023-03-24T18:00:09;14.70;99.90
35129;DHT22;21301;43.626;10.580;2023-03-24T18:02:39;14.70;99.90
35129;DHT22;21301;43.626;10.580;2023-03-24T18:05:06;14.70;99.90
35129;DHT22;21301;43.626;10.580;2023-03-24T18:07:32;14.70;99.90
35129;DHT22;21301;43.626;10.580;2023-03-24T18:09:58;14.60;99.90
35129;DHT22;21301;43.626;10.580;2023-03-24T18:12:24;14.70;99.90
35129;DHT22;21301;43.626;10.580;2023-03-24T18:14:50;14.70;99.90
35129;DHT22;21301;43.626;10.580;2023-03-24T18:17:16;14.70;99.90
35129;DHT22;21301;43.626;10.580;2023-03-24T18:19:42;14.70;99.90
35129;DHT22;21301;43.626;10.580;2023-03-24T18:22:08;14.60;99.90
35129;DHT22;21301;43.626;10.580;2023-03-24T18:24:34;14.60;99.90
35129;DHT22;21301;43.626;10.580;2023-03-24T18:27:01;14.60;99.90
35129;DHT22;21301;43.626;10.580;2023-03-24T18:29:27;14.60;99.90